createdAt,value
2022-07-27T00:00:14.301Z,21.1
2022-07-27T00:15:10.162Z,21.0
2022-07-27T00:30:11.625Z,21
2022-07-27T00:45:10.245Z,20.9
2022-07-27T01:00:12.504Z,20.9
2022-07-27T01:15:10.137Z,20.8
2022-07-27T01:30:12.100Z,20.8
2022-07-27T01:45:10.199Z,20.7
2022-07-27T02:00:13.949Z,20.6
2022-07-27T02:15:15.261Z,20.6
2022-07-27T02:30:12.566Z,20.5
2022-07-27T02:45:10.731Z,20.5
2022-07-27T03:00:11.797Z,20.5
2022-07-27T03:15:10.193Z,20.4
2022-07-27T03:30:12.761Z,20.4
2022-07-27T03:45:12.892Z,20.3
2022-07-27T04:00:13.531Z,20.3
2022-07-27T04:15:10.675Z,20.3
2022-07-27T04:30:12.107Z,20.3
2022-07-27T04:45:11.864Z,20.3
2022-07-27T05:00:13.203Z,20.2
2022-07-27T05:15:12.234Z,20.2
2022-07-27T05:30:12.264Z,20.2
2022-07-27T05:45:10.408Z,20.3
2022-07-27T06:00:15.784Z,20.3
2022-07-27T06:15:13.605Z,20.4
2022-07-27T06:30:13.386Z,20.4
2022-07-27T06:45:11.222Z,20.5
2022-07-27T07:00:15.137Z,20.6
2022-07-27T07:15:12.696Z,20.6
2022-07-27T07:30:15.636Z,20.7
2022-07-27T07:45:11.881Z,20.7
2022-07-27T08:00:13.981Z,20.7
2022-07-27T08:15:10.849Z,20.8
2022-07-27T08:30:12.795Z,20.9
2022-07-27T08:45:11.051Z,20.9
2022-07-27T09:00:13.756Z,21.0
2022-07-27T09:15:10.173Z,21
2022-07-27T09:30:12.683Z,21.1
2022-07-27T09:45:10.743Z,21.1
2022-07-27T10:00:13.868Z,21.2
2022-07-27T10:15:10.822Z,21.2
2022-07-27T10:30:16.164Z,21.3
2022-07-27T10:45:12.375Z,21.3
2022-07-27T11:00:19.417Z,21.4
2022-07-27T11:15:11.624Z,21.5
2022-07-27T11:30:13.733Z,21.5
2022-07-27T11:45:11.505Z,21.6
2022-07-27T12:00:14.581Z,21.7
2022-07-27T12:15:28.336Z,21.8
2022-07-27T12:30:30.520Z,21.8
2022-07-27T12:45:11.649Z,21.8
2022-07-27T13:03:03.913Z,21.8
2022-07-27T13:15:04.252Z,21.8
2022-07-27T13:30:04.542Z,21.9
2022-07-27T13:45:08.980Z,21.9
2022-07-27T14:00:04.781Z,22.1
2022-07-27T14:15:03.575Z,22.1
2022-07-27T14:30:03.766Z,22.1
2022-07-27T14:45:03.141Z,22.1
2022-07-27T15:00:03.574Z,22.0
2022-07-27T15:15:03.725Z,22
2022-07-27T15:30:03.909Z,22.1
2022-07-27T15:45:03.496Z,22.1
2022-07-27T16:00:04.295Z,22.1
2022-07-27T16:15:02.432Z,22.1
2022-07-27T16:30:04.255Z,22.1
2022-07-27T16:45:04.215Z,22.1
2022-07-27T17:00:09.919Z,22.1
2022-07-27T17:15:04.601Z,22.0
2022-07-27T17:30:04.596Z,22
2022-07-27T17:45:02.680Z,22
2022-07-27T18:00:05.690Z,22.1
2022-07-27T18:15:03.360Z,22.1
2022-07-27T18:30:05.051Z,22.1
2022-07-27T18:45:03.400Z,22.0
2022-07-27T19:00:06.116Z,22
2022-07-27T19:15:05.156Z,21.9
2022-07-27T19:30:08.465Z,21.8
2022-07-27T19:45:02.921Z,21.7
2022-07-27T20:00:05.828Z,21.7
2022-07-27T20:15:03.801Z,21.6
2022-07-27T20:30:08.127Z,21.5
2022-07-27T20:45:03.522Z,21.4
2022-07-27T21:00:05.379Z,21.4
2022-07-27T21:15:02.529Z,21.3
2022-07-27T21:30:04.576Z,21.3
2022-07-27T21:45:04.241Z,21.2
2022-07-27T22:00:07.163Z,21.2
2022-07-27T22:15:04.016Z,21.1
2022-07-27T22:30:04.919Z,21.0
2022-07-27T22:45:02.524Z,21.0
2022-07-27T23:00:07.046Z,21
2022-07-27T23:15:03.533Z,20.9
2022-07-27T23:30:04.880Z,20.9
2022-07-27T23:45:04.583Z,20.8
